sensor_id;sensor_type;location;lat;lon;timestamp;P1;durP1;ratioP1;P2;durP2;ratioP2
5752;SDS011;2901;42.140;24.760;2024-01-16T00:01:54;109.73;;;37.57;;
5752;SDS011;2901;42.140;24.760;2024-01-16T00:04:19;190.00;;;46.33;;
5752;SDS011;2901;42.140;24.760;2024-01-16T00:06:44;183.40;;;43.00;;
5752;SDS011;2901;42.140;24.760;2024-01-16T00:09:10;68.20;;;32.67;;
5752;SDS011;2901;42.140;24.760;2024-01-16T00:11:42;77.57;;;34.30;;
5752;SDS011;2901;42.140;24.760;2024-01-16T00:14:08;85.77;;;35.60;;
5752;SDS011;2901;42.140;24.760;2024-01-16T00:16:33;64.20;;;33.57;;
5752;SDS011;2901;42.140;24.760;2024-01-16T00:18:59;62.27;;;33.30;;
5752;SDS011;2901;42.140;24.760;2024-01-16T00:21:24;73.83;;;34.40;;
5752;SDS011;2901;42.140;24.760;2024-01-16T00:23:50;65.03;;;32.17;;
5752;SDS011;2901;42.140;24.760;2024-01-16T00:26:21;58.17;;;31.53;;
5752;SDS011;2901;42.140;24.760;2024-01-16T00:28:47;57.00;;;29.10;;
5752;SDS011;2901;42.140;24.760;2024-01-16T00:31:13;52.67;;;29.93;;
5752;SDS011;2901;42.140;24.760;2024-01-16T00:33:38;55.07;;;30.47;;
5752;SDS011;2901;42.140;24.760;2024-01-16T00:36:04;62.90;;;31.13;;
5752;SDS011;2901;42.140;24.760;2024-01-16T00:38:32;62.47;;;33.00;;
5752;SDS011;2901;42.140;24.760;2024-01-16T00:40:58;62.70;;;32.60;;
5752;SDS011;2901;42.140;24.760;2024-01-16T00:43:23;64.87;;;34.10;;
5752;SDS011;2901;42.140;24.760;2024-01-16T00:45:49;58.73;;;31.37;;
5752;SDS011;2901;42.140;24.760;2024-01-16T00:48:14;60.07;;;31.50;;
5752;SDS011;2901;42.140;24.760;2024-01-16T00:50:40;63.23;;;33.97;;
5752;SDS011;2901;42.140;24.760;2024-01-16T00:53:06;69.93;;;34.37;;
5752;SDS011;2901;42.140;24.760;2024-01-16T00:55:31;61.27;;;33.87;;
5752;SDS011;2901;42.140;24.760;2024-01-16T00:57:57;62.57;;;34.33;;
5752;SDS011;2901;42.140;24.760;2024-01-16T01:00:22;61.37;;;33.60;;
5752;SDS011;2901;42.140;24.760;2024-01-16T01:02:48;64.43;;;34.23;;
5752;SDS011;2901;42.140;24.760;2024-01-16T01:05:13;66.23;;;34.70;;
5752;SDS011;2901;42.140;24.760;2024-01-16T01:07:38;67.77;;;34.67;;
5752;SDS011;2901;42.140;24.760;2024-01-16T01:10:04;64.23;;;32.63;;
5752;SDS011;2901;42.140;24.760;2024-01-16T01:12:30;64.83;;;33.27;;
5752;SDS011;2901;42.140;24.760;2024-01-16T01:14:55;63.57;;;34.97;;
5752;SDS011;2901;42.140;24.760;2024-01-16T01:17:21;70.87;;;35.10;;
5752;SDS011;2901;42.140;24.760;2024-01-16T01:19:46;67.80;;;35.93;;
5752;SDS011;2901;42.140;24.760;2024-01-16T01:22:12;66.10;;;33.73;;
5752;SDS011;2901;42.140;24.760;2024-01-16T01:24:37;63.07;;;33.23;;
5752;SDS011;2901;42.140;24.760;2024-01-16T01:27:03;65.70;;;34.57;;
5752;SDS011;2901;42.140;24.760;2024-01-16T01:29:29;60.47;;;35.73;;
5752;SDS011;2901;42.140;24.760;2024-01-16T01:31:54;70.73;;;36.70;;
5752;SDS011;2901;42.140;24.760;2024-01-16T01:34:19;58.30;;;34.37;;
5752;SDS011;2901;42.140;24.760;2024-01-16T01:36:45;68.90;;;35.20;;
5752;SDS011;2901;42.140;24.760;2024-01-16T01:39:10;59.70;;;33.10;;
5752;SDS011;2901;42.140;24.760;2024-01-16T01:41:36;65.83;;;34.47;;
5752;SDS011;2901;42.140;24.760;2024-01-16T01:44:02;62.67;;;34.63;;
5752;SDS011;2901;42.140;24.760;2024-01-16T01:46:28;62.40;;;32.93;;
5752;SDS011;2901;42.140;24.760;2024-01-16T01:48:54;63.30;;;33.07;;
5752;SDS011;2901;42.140;24.760;2024-01-16T01:51:20;55.10;;;32.37;;
5752;SDS011;2901;42.140;24.760;2024-01-16T01:53:47;67.27;;;31.70;;
5752;SDS011;2901;42.140;24.760;2024-01-16T01:56:15;60.87;;;33.53;;
5752;SDS011;2901;42.140;24.760;2024-01-16T01:58:43;48.93;;;29.63;;
5752;SDS011;2901;42.140;24.760;2024-01-16T02:01:11;54.73;;;28.47;;
5752;SDS011;2901;42.140;24.760;2024-01-16T02:03:39;53.37;;;29.73;;
5752;SDS011;2901;42.140;24.760;2024-01-16T02:06:07;61.33;;;32.07;;
5752;SDS011;2901;42.140;24.760;2024-01-16T02:08:32;56.47;;;29.07;;
5752;SDS011;2901;42.140;24.760;2024-01-16T02:10:58;55.57;;;30.93;;
5752;SDS011;2901;42.140;24.760;2024-01-16T02:13:24;60.67;;;28.60;;
5752;SDS011;2901;42.140;24.760;2024-01-16T02:15:50;55.40;;;27.93;;
5752;SDS011;2901;42.140;24.760;2024-01-16T02:18:16;44.20;;;27.07;;
5752;SDS011;2901;42.140;24.760;2024-01-16T02:20:42;42.00;;;27.13;;
5752;SDS011;2901;42.140;24.760;2024-01-16T02:23:07;49.90;;;26.67;;
5752;SDS011;2901;42.140;24.760;2024-01-16T02:25:35;51.03;;;25.97;;
5752;SDS011;2901;42.140;24.760;2024-01-16T02:28:01;44.57;;;27.07;;
5752;SDS011;2901;42.140;24.760;2024-01-16T02:30:28;52.27;;;27.40;;
5752;SDS011;2901;42.140;24.760;2024-01-16T02:32:53;47.80;;;27.17;;
5752;SDS011;2901;42.140;24.760;2024-01-16T02:35:18;49.17;;;26.47;;
5752;SDS011;2901;42.140;24.760;2024-01-16T02:37:44;43.27;;;25.87;;
5752;SDS011;2901;42.140;24.760;2024-01-16T02:40:10;53.53;;;27.07;;
5752;SDS011;2901;42.140;24.760;2024-01-16T02:42:36;46.23;;;25.90;;
5752;SDS011;2901;42.140;24.760;2024-01-16T02:45:02;47.80;;;28.23;;
5752;SDS011;2901;42.140;24.760;2024-01-16T02:47:29;51.00;;;26.87;;
5752;SDS011;2901;42.140;24.760;2024-01-16T02:49:54;47.17;;;26.53;;
5752;SDS011;2901;42.140;24.760;2024-01-16T02:52:20;44.93;;;26.27;;
5752;SDS011;2901;42.140;24.760;2024-01-16T02:54:45;42.20;;;25.77;;
5752;SDS011;2901;42.140;24.760;2024-01-16T02:57:10;50.03;;;27.73;;
5752;SDS011;2901;42.140;24.760;2024-01-16T02:59:36;46.53;;;27.30;;
5752;SDS011;2901;42.140;24.760;2024-01-16T03:02:01;56.17;;;29.37;;
5752;SDS011;2901;42.140;24.760;2024-01-16T03:04:27;45.67;;;28.63;;
5752;SDS011;2901;42.140;24.760;2024-01-16T03:06:53;62.00;;;29.93;;
5752;SDS011;2901;42.140;24.760;2024-01-16T03:09:18;56.03;;;30.17;;
5752;SDS011;2901;42.140;24.760;2024-01-16T03:11:43;52.43;;;29.57;;
5752;SDS011;2901;42.140;24.760;2024-01-16T03:14:09;57.23;;;30.20;;
5752;SDS011;2901;42.140;24.760;2024-01-16T03:16:34;51.07;;;29.33;;
5752;SDS011;2901;42.140;24.760;2024-01-16T03:19:00;49.37;;;28.83;;
5752;SDS011;2901;42.140;24.760;2024-01-16T03:21:25;57.30;;;29.30;;
5752;SDS011;2901;42.140;24.760;2024-01-16T03:23:51;50.30;;;28.53;;
5752;SDS011;2901;42.140;24.760;2024-01-16T03:26:16;59.80;;;28.93;;
5752;SDS011;2901;42.140;24.760;2024-01-16T03:28:42;57.47;;;30.20;;
5752;SDS011;2901;42.140;24.760;2024-01-16T03:31:07;49.37;;;29.43;;
5752;SDS011;2901;42.140;24.760;2024-01-16T03:33:33;55.70;;;30.20;;
5752;SDS011;2901;42.140;24.760;2024-01-16T03:36:06;49.57;;;28.70;;
5752;SDS011;2901;42.140;24.760;2024-01-16T03:38:36;58.33;;;29.43;;
5752;SDS011;2901;42.140;24.760;2024-01-16T03:41:04;49.83;;;29.60;;
5752;SDS011;2901;42.140;24.760;2024-01-16T03:43:31;50.67;;;29.30;;
5752;SDS011;2901;42.140;24.760;2024-01-16T03:45:57;51.50;;;29.30;;
5752;SDS011;2901;42.140;24.760;2024-01-16T03:48:23;56.27;;;31.70;;
5752;SDS011;2901;42.140;24.760;2024-01-16T03:50:48;56.60;;;30.17;;
5752;SDS011;2901;42.140;24.760;2024-01-16T03:53:14;50.87;;;30.10;;
5752;SDS011;2901;42.140;24.760;2024-01-16T03:55:39;51.57;;;30.40;;
5752;SDS011;2901;42.140;24.760;2024-01-16T03:58:04;58.33;;;29.23;;
5752;SDS011;2901;42.140;24.760;2024-01-16T04:00:30;56.60;;;29.23;;
5752;SDS011;2901;42.140;24.760;2024-01-16T04:02:55;56.03;;;29.50;;
5752;SDS011;2901;42.140;24.760;2024-01-16T04:05:21;55.53;;;30.53;;
5752;SDS011;2901;42.140;24.760;2024-01-16T04:07:46;57.33;;;32.10;;
5752;SDS011;2901;42.140;24.760;2024-01-16T04:10:11;57.50;;;31.23;;
5752;SDS011;2901;42.140;24.760;2024-01-16T04:12:37;57.47;;;30.67;;
5752;SDS011;2901;42.140;24.760;2024-01-16T04:15:02;68.40;;;31.73;;
5752;SDS011;2901;42.140;24.760;2024-01-16T04:17:28;72.33;;;36.87;;
5752;SDS011;2901;42.140;24.760;2024-01-16T04:19:54;74.77;;;38.30;;
5752;SDS011;2901;42.140;24.760;2024-01-16T04:22:19;67.10;;;36.63;;
5752;SDS011;2901;42.140;24.760;2024-01-16T04:24:44;65.33;;;32.83;;
5752;SDS011;2901;42.140;24.760;2024-01-16T04:27:10;58.90;;;32.23;;
5752;SDS011;2901;42.140;24.760;2024-01-16T04:29:36;72.80;;;33.27;;
5752;SDS011;2901;42.140;24.760;2024-01-16T04:32:02;59.07;;;33.87;;
5752;SDS011;2901;42.140;24.760;2024-01-16T04:34:28;61.20;;;32.80;;
5752;SDS011;2901;42.140;24.760;2024-01-16T04:36:54;54.20;;;32.23;;
5752;SDS011;2901;42.140;24.760;2024-01-16T04:39:19;60.17;;;31.17;;
5752;SDS011;2901;42.140;24.760;2024-01-16T04:41:47;58.63;;;31.50;;
5752;SDS011;2901;42.140;24.760;2024-01-16T04:44:13;52.40;;;29.80;;
5752;SDS011;2901;42.140;24.760;2024-01-16T04:46:38;59.57;;;31.63;;
5752;SDS011;2901;42.140;24.760;2024-01-16T04:49:03;59.10;;;31.03;;
5752;SDS011;2901;42.140;24.760;2024-01-16T04:51:29;61.57;;;33.10;;
5752;SDS011;2901;42.140;24.760;2024-01-16T04:53:54;57.77;;;29.73;;
5752;SDS011;2901;42.140;24.760;2024-01-16T04:56:19;51.07;;;29.33;;
5752;SDS011;2901;42.140;24.760;2024-01-16T04:58:46;59.77;;;32.27;;
5752;SDS011;2901;42.140;24.760;2024-01-16T05:01:12;59.60;;;32.83;;
5752;SDS011;2901;42.140;24.760;2024-01-16T05:03:38;70.07;;;33.97;;
5752;SDS011;2901;42.140;24.760;2024-01-16T05:06:03;66.40;;;32.27;;
5752;SDS011;2901;42.140;24.760;2024-01-16T05:08:29;60.37;;;32.63;;
5752;SDS011;2901;42.140;24.760;2024-01-16T05:10:55;44.50;;;26.60;;
5752;SDS011;2901;42.140;24.760;2024-01-16T05:13:23;47.43;;;27.70;;
5752;SDS011;2901;42.140;24.760;2024-01-16T05:15:49;48.47;;;27.23;;
5752;SDS011;2901;42.140;24.760;2024-01-16T05:18:14;44.83;;;25.47;;
5752;SDS011;2901;42.140;24.760;2024-01-16T05:20:40;40.30;;;23.03;;
5752;SDS011;2901;42.140;24.760;2024-01-16T05:23:05;48.80;;;24.43;;
5752;SDS011;2901;42.140;24.760;2024-01-16T05:25:31;42.17;;;23.60;;
5752;SDS011;2901;42.140;24.760;2024-01-16T05:27:56;32.80;;;17.27;;
5752;SDS011;2901;42.140;24.760;2024-01-16T05:30:21;32.97;;;18.00;;
5752;SDS011;2901;42.140;24.760;2024-01-16T05:32:47;36.50;;;20.50;;
5752;SDS011;2901;42.140;24.760;2024-01-16T05:35:12;30.10;;;19.17;;
5752;SDS011;2901;42.140;24.760;2024-01-16T05:37:38;34.00;;;18.57;;
5752;SDS011;2901;42.140;24.760;2024-01-16T05:40:03;27.27;;;17.57;;
5752;SDS011;2901;42.140;24.760;2024-01-16T05:42:30;22.77;;;16.67;;
5752;SDS011;2901;42.140;24.760;2024-01-16T05:44:56;27.23;;;16.30;;
5752;SDS011;2901;42.140;24.760;2024-01-16T05:47:21;29.73;;;17.33;;
5752;SDS011;2901;42.140;24.760;2024-01-16T05:49:49;27.00;;;18.07;;
5752;SDS011;2901;42.140;24.760;2024-01-16T05:52:14;27.93;;;17.73;;
5752;SDS011;2901;42.140;24.760;2024-01-16T05:54:40;38.37;;;17.00;;
5752;SDS011;2901;42.140;24.760;2024-01-16T05:57:05;28.83;;;17.90;;
5752;SDS011;2901;42.140;24.760;2024-01-16T05:59:30;29.63;;;18.10;;
5752;SDS011;2901;42.140;24.760;2024-01-16T06:01:56;32.93;;;18.57;;
5752;SDS011;2901;42.140;24.760;2024-01-16T06:04:21;26.90;;;17.87;;
5752;SDS011;2901;42.140;24.760;2024-01-16T06:06:46;30.83;;;18.23;;
5752;SDS011;2901;42.140;24.760;2024-01-16T06:09:12;34.17;;;21.43;;
5752;SDS011;2901;42.140;24.760;2024-01-16T06:11:39;41.73;;;19.40;;
5752;SDS011;2901;42.140;24.760;2024-01-16T06:14:06;25.97;;;18.50;;
5752;SDS011;2901;42.140;24.760;2024-01-16T06:16:32;22.30;;;13.80;;
5752;SDS011;2901;42.140;24.760;2024-01-16T06:18:57;26.33;;;15.50;;
5752;SDS011;2901;42.140;24.760;2024-01-16T06:21:23;13.97;;;11.37;;
5752;SDS011;2901;42.140;24.760;2024-01-16T06:23:48;10.93;;;9.50;;
5752;SDS011;2901;42.140;24.760;2024-01-16T06:26:14;13.37;;;9.77;;
5752;SDS011;2901;42.140;24.760;2024-01-16T06:28:40;10.83;;;9.67;;
5752;SDS011;2901;42.140;24.760;2024-01-16T06:31:08;11.67;;;8.90;;
5752;SDS011;2901;42.140;24.760;2024-01-16T06:33:33;11.73;;;9.27;;
5752;SDS011;2901;42.140;24.760;2024-01-16T06:35:59;8.37;;;7.63;;
5752;SDS011;2901;42.140;24.760;2024-01-16T06:38:24;7.57;;;6.97;;
5752;SDS011;2901;42.140;24.760;2024-01-16T06:40:50;6.60;;;6.10;;
5752;SDS011;2901;42.140;24.760;2024-01-16T06:43:15;7.93;;;7.13;;
5752;SDS011;2901;42.140;24.760;2024-01-16T06:45:44;10.27;;;5.80;;
5752;SDS011;2901;42.140;24.760;2024-01-16T06:48:09;6.67;;;5.77;;
5752;SDS011;2901;42.140;24.760;2024-01-16T06:50:35;6.03;;;5.53;;
5752;SDS011;2901;42.140;24.760;2024-01-16T06:53:01;6.27;;;4.70;;
5752;SDS011;2901;42.140;24.760;2024-01-16T06:55:26;3.93;;;3.63;;
5752;SDS011;2901;42.140;24.760;2024-01-16T06:57:52;5.30;;;4.90;;
5752;SDS011;2901;42.140;24.760;2024-01-16T07:00:17;4.53;;;4.23;;
5752;SDS011;2901;42.140;24.760;2024-01-16T07:02:43;5.03;;;4.43;;
5752;SDS011;2901;42.140;24.760;2024-01-16T07:05:11;7.37;;;4.50;;
5752;SDS011;2901;42.140;24.760;2024-01-16T07:07:37;5.33;;;4.90;;
5752;SDS011;2901;42.140;24.760;2024-01-16T07:10:03;5.00;;;4.60;;
5752;SDS011;2901;42.140;24.760;2024-01-16T07:12:29;5.33;;;4.53;;
5752;SDS011;2901;42.140;24.760;2024-01-16T07:14:54;4.10;;;3.70;;
5752;SDS011;2901;42.140;24.760;2024-01-16T07:17:19;4.47;;;4.17;;
5752;SDS011;2901;42.140;24.760;2024-01-16T07:19:45;3.83;;;3.63;;
5752;SDS011;2901;42.140;24.760;2024-01-16T07:22:10;4.07;;;3.77;;
5752;SDS011;2901;42.140;24.760;2024-01-16T07:24:36;3.73;;;3.40;;
5752;SDS011;2901;42.140;24.760;2024-01-16T07:27:01;4.53;;;4.20;;
5752;SDS011;2901;42.140;24.760;2024-01-16T07:29:27;3.90;;;3.60;;
5752;SDS011;2901;42.140;24.760;2024-01-16T07:31:53;3.27;;;3.17;;
5752;SDS011;2901;42.140;24.760;2024-01-16T07:34:18;3.30;;;3.10;;
5752;SDS011;2901;42.140;24.760;2024-01-16T07:36:47;3.00;;;2.90;;
5752;SDS011;2901;42.140;24.760;2024-01-16T07:39:12;3.10;;;2.90;;
5752;SDS011;2901;42.140;24.760;2024-01-16T07:41:39;4.20;;;4.00;;
5752;SDS011;2901;42.140;24.760;2024-01-16T07:44:05;3.43;;;3.23;;
5752;SDS011;2901;42.140;24.760;2024-01-16T07:46:30;2.83;;;2.63;;
5752;SDS011;2901;42.140;24.760;2024-01-16T07:48:55;3.23;;;3.03;;
5752;SDS011;2901;42.140;24.760;2024-01-16T07:51:21;3.90;;;3.67;;
5752;SDS011;2901;42.140;24.760;2024-01-16T07:53:46;3.42;;;3.22;;
5752;SDS011;2901;42.140;24.760;2024-01-16T07:56:13;3.60;;;3.30;;
5752;SDS011;2901;42.140;24.760;2024-01-16T07:58:39;2.78;;;2.58;;
5752;SDS011;2901;42.140;24.760;2024-01-16T08:01:05;4.07;;;3.77;;
5752;SDS011;2901;42.140;24.760;2024-01-16T08:03:30;3.70;;;2.70;;
5752;SDS011;2901;42.140;24.760;2024-01-16T08:05:55;3.13;;;2.93;;
5752;SDS011;2901;42.140;24.760;2024-01-16T08:08:21;2.43;;;2.23;;
5752;SDS011;2901;42.140;24.760;2024-01-16T08:10:47;3.38;;;2.40;;
5752;SDS011;2901;42.140;24.760;2024-01-16T08:13:12;2.22;;;2.13;;
5752;SDS011;2901;42.140;24.760;2024-01-16T08:15:38;2.65;;;2.45;;
5752;SDS011;2901;42.140;24.760;2024-01-16T08:18:03;3.00;;;1.83;;
5752;SDS011;2901;42.140;24.760;2024-01-16T08:20:29;2.20;;;2.10;;
5752;SDS011;2901;42.140;24.760;2024-01-16T08:22:54;3.00;;;2.45;;
5752;SDS011;2901;42.140;24.760;2024-01-16T08:25:19;4.33;;;1.90;;
5752;SDS011;2901;42.140;24.760;2024-01-16T08:27:45;2.53;;;2.33;;
5752;SDS011;2901;42.140;24.760;2024-01-16T08:30:10;2.90;;;2.70;;
5752;SDS011;2901;42.140;24.760;2024-01-16T08:32:37;2.13;;;2.03;;
5752;SDS011;2901;42.140;24.760;2024-01-16T08:35:02;8.07;;;2.67;;
5752;SDS011;2901;42.140;24.760;2024-01-16T08:37:31;1.77;;;1.67;;
5752;SDS011;2901;42.140;24.760;2024-01-16T08:39:57;3.67;;;2.40;;
5752;SDS011;2901;42.140;24.760;2024-01-16T08:42:23;2.30;;;2.08;;
5752;SDS011;2901;42.140;24.760;2024-01-16T08:44:48;2.10;;;1.85;;
5752;SDS011;2901;42.140;24.760;2024-01-16T08:47:14;2.88;;;2.67;;
5752;SDS011;2901;42.140;24.760;2024-01-16T08:49:40;3.15;;;2.95;;
5752;SDS011;2901;42.140;24.760;2024-01-16T08:52:05;6.47;;;3.08;;
5752;SDS011;2901;42.140;24.760;2024-01-16T08:54:31;3.20;;;2.30;;
5752;SDS011;2901;42.140;24.760;2024-01-16T08:56:57;3.55;;;2.80;;
5752;SDS011;2901;42.140;24.760;2024-01-16T08:59:23;2.60;;;2.40;;
5752;SDS011;2901;42.140;24.760;2024-01-16T09:01:49;3.03;;;2.67;;
5752;SDS011;2901;42.140;24.760;2024-01-16T09:04:14;2.45;;;2.35;;
5752;SDS011;2901;42.140;24.760;2024-01-16T09:06:40;4.95;;;2.35;;
5752;SDS011;2901;42.140;24.760;2024-01-16T09:09:05;2.13;;;2.03;;
5752;SDS011;2901;42.140;24.760;2024-01-16T09:11:31;6.95;;;3.13;;
5752;SDS011;2901;42.140;24.760;2024-01-16T09:13:57;2.07;;;1.90;;
5752;SDS011;2901;42.140;24.760;2024-01-16T09:16:23;1.90;;;1.80;;
5752;SDS011;2901;42.140;24.760;2024-01-16T09:18:48;1.73;;;1.63;;
5752;SDS011;2901;42.140;24.760;2024-01-16T09:21:14;2.30;;;1.90;;
5752;SDS011;2901;42.140;24.760;2024-01-16T09:23:39;3.63;;;1.90;;
5752;SDS011;2901;42.140;24.760;2024-01-16T09:26:04;2.15;;;1.75;;
5752;SDS011;2901;42.140;24.760;2024-01-16T09:28:30;2.78;;;1.75;;
5752;SDS011;2901;42.140;24.760;2024-01-16T09:30:55;3.00;;;1.40;;
5752;SDS011;2901;42.140;24.760;2024-01-16T09:33:21;1.00;;;1.00;;
5752;SDS011;2901;42.140;24.760;2024-01-16T09:35:48;3.50;;;1.20;;
5752;SDS011;2901;42.140;24.760;2024-01-16T09:38:13;2.03;;;1.23;;
5752;SDS011;2901;42.140;24.760;2024-01-16T09:40:38;1.77;;;1.17;;
5752;SDS011;2901;42.140;24.760;2024-01-16T09:43:04;4.43;;;1.35;;
5752;SDS011;2901;42.140;24.760;2024-01-16T09:45:30;3.83;;;1.30;;
5752;SDS011;2901;42.140;24.760;2024-01-16T09:47:56;1.15;;;1.05;;
5752;SDS011;2901;42.140;24.760;2024-01-16T09:50:22;3.03;;;1.60;;
5752;SDS011;2901;42.140;24.760;2024-01-16T09:52:48;0.70;;;0.70;;
5752;SDS011;2901;42.140;24.760;2024-01-16T09:55:17;3.30;;;1.48;;
5752;SDS011;2901;42.140;24.760;2024-01-16T09:57:44;2.10;;;1.25;;
5752;SDS011;2901;42.140;24.760;2024-01-16T10:00:11;2.50;;;1.02;;
5752;SDS011;2901;42.140;24.760;2024-01-16T10:02:40;1.20;;;1.00;;
5752;SDS011;2901;42.140;24.760;2024-01-16T10:05:07;1.25;;;1.15;;
5752;SDS011;2901;42.140;24.760;2024-01-16T10:07:40;1.33;;;1.23;;
5752;SDS011;2901;42.140;24.760;2024-01-16T10:10:09;1.98;;;1.10;;
5752;SDS011;2901;42.140;24.760;2024-01-16T10:12:36;1.00;;;1.00;;
5752;SDS011;2901;42.140;24.760;2024-01-16T10:15:02;0.80;;;0.80;;
5752;SDS011;2901;42.140;24.760;2024-01-16T10:17:39;3.47;;;0.98;;
5752;SDS011;2901;42.140;24.760;2024-01-16T10:20:06;1.23;;;1.13;;
5752;SDS011;2901;42.140;24.760;2024-01-16T10:22:32;4.70;;;1.17;;
5752;SDS011;2901;42.140;24.760;2024-01-16T10:25:05;0.82;;;0.82;;
5752;SDS011;2901;42.140;24.760;2024-01-16T10:27:38;1.25;;;1.10;;
5752;SDS011;2901;42.140;24.760;2024-01-16T10:30:05;1.02;;;1.02;;
5752;SDS011;2901;42.140;24.760;2024-01-16T10:32:32;1.17;;;1.17;;
5752;SDS011;2901;42.140;24.760;2024-01-16T10:37:29;1.00;;;1.00;;
5752;SDS011;2901;42.140;24.760;2024-01-16T10:39:56;2.38;;;1.40;;
5752;SDS011;2901;42.140;24.760;2024-01-16T10:42:21;1.42;;;1.33;;
5752;SDS011;2901;42.140;24.760;2024-01-16T10:44:52;2.42;;;1.08;;
5752;SDS011;2901;42.140;24.760;2024-01-16T10:47:19;1.40;;;1.30;;
5752;SDS011;2901;42.140;24.760;2024-01-16T10:49:47;2.85;;;1.02;;
5752;SDS011;2901;42.140;24.760;2024-01-16T10:52:12;2.28;;;0.88;;
5752;SDS011;2901;42.140;24.760;2024-01-16T10:54:39;1.77;;;1.35;;
5752;SDS011;2901;42.140;24.760;2024-01-16T10:57:07;0.80;;;0.80;;
5752;SDS011;2901;42.140;24.760;2024-01-16T10:59:34;1.20;;;1.20;;
5752;SDS011;2901;42.140;24.760;2024-01-16T11:02:07;3.42;;;1.77;;
5752;SDS011;2901;42.140;24.760;2024-01-16T11:04:39;1.50;;;1.40;;
5752;SDS011;2901;42.140;24.760;2024-01-16T11:07:07;1.30;;;1.20;;
5752;SDS011;2901;42.140;24.760;2024-01-16T11:09:33;1.45;;;1.35;;
5752;SDS011;2901;42.140;24.760;2024-01-16T11:12:00;1.08;;;1.08;;
5752;SDS011;2901;42.140;24.760;2024-01-16T11:14:27;5.15;;;1.88;;
5752;SDS011;2901;42.140;24.760;2024-01-16T11:16:55;1.90;;;1.50;;
5752;SDS011;2901;42.140;24.760;2024-01-16T11:19:22;1.27;;;1.10;;
5752;SDS011;2901;42.140;24.760;2024-01-16T11:21:49;1.02;;;1.02;;
5752;SDS011;2901;42.140;24.760;2024-01-16T11:24:14;1.20;;;1.15;;
5752;SDS011;2901;42.140;24.760;2024-01-16T11:26:40;1.20;;;1.00;;
5752;SDS011;2901;42.140;24.760;2024-01-16T11:29:38;1.13;;;1.10;;
5752;SDS011;2901;42.140;24.760;2024-01-16T11:31:57;2.00;;;0.77;;
5752;SDS011;2901;42.140;24.760;2024-01-16T11:37:07;2.45;;;1.20;;
5752;SDS011;2901;42.140;24.760;2024-01-16T11:39:32;0.88;;;0.88;;
5752;SDS011;2901;42.140;24.760;2024-01-16T11:41:58;1.33;;;1.23;;
5752;SDS011;2901;42.140;24.760;2024-01-16T11:44:38;1.30;;;1.20;;
5752;SDS011;2901;42.140;24.760;2024-01-16T11:47:08;2.22;;;0.98;;
5752;SDS011;2901;42.140;24.760;2024-01-16T11:49:35;1.15;;;0.93;;
5752;SDS011;2901;42.140;24.760;2024-01-16T11:52:01;2.08;;;0.80;;
5752;SDS011;2901;42.140;24.760;2024-01-16T11:54:27;7.72;;;1.10;;
5752;SDS011;2901;42.140;24.760;2024-01-16T12:05:17;0.82;;;0.82;;
5752;SDS011;2901;42.140;24.760;2024-01-16T12:07:45;1.02;;;0.63;;
5752;SDS011;2901;42.140;24.760;2024-01-16T12:10:14;1.10;;;0.70;;
5752;SDS011;2901;42.140;24.760;2024-01-16T12:12:41;1.67;;;0.93;;
5752;SDS011;2901;42.140;24.760;2024-01-16T12:15:06;1.48;;;0.77;;
5752;SDS011;2901;42.140;24.760;2024-01-16T12:17:32;2.58;;;0.95;;
5752;SDS011;2901;42.140;24.760;2024-01-16T12:19:57;4.78;;;0.98;;
5752;SDS011;2901;42.140;24.760;2024-01-16T12:22:23;1.88;;;1.00;;
5752;SDS011;2901;42.140;24.760;2024-01-16T12:24:48;1.77;;;1.00;;
5752;SDS011;2901;42.140;24.760;2024-01-16T12:27:13;2.60;;;1.00;;
5752;SDS011;2901;42.140;24.760;2024-01-16T12:29:40;2.35;;;0.70;;
5752;SDS011;2901;42.140;24.760;2024-01-16T12:32:09;5.32;;;1.08;;
5752;SDS011;2901;42.140;24.760;2024-01-16T12:34:43;7.35;;;1.15;;
5752;SDS011;2901;42.140;24.760;2024-01-16T12:37:10;2.17;;;0.70;;
5752;SDS011;2901;42.140;24.760;2024-01-16T12:39:37;1.85;;;0.90;;
5752;SDS011;2901;42.140;24.760;2024-01-16T12:42:03;1.00;;;1.00;;
5752;SDS011;2901;42.140;24.760;2024-01-16T12:44:29;2.28;;;1.40;;
5752;SDS011;2901;42.140;24.760;2024-01-16T12:46:55;1.50;;;1.15;;
5752;SDS011;2901;42.140;24.760;2024-01-16T12:49:21;2.78;;;0.90;;
5752;SDS011;2901;42.140;24.760;2024-01-16T12:51:48;0.90;;;0.90;;
5752;SDS011;2901;42.140;24.760;2024-01-16T12:54:14;1.13;;;1.00;;
5752;SDS011;2901;42.140;24.760;2024-01-16T12:56:41;1.05;;;0.80;;
5752;SDS011;2901;42.140;24.760;2024-01-16T12:59:10;0.80;;;0.80;;
5752;SDS011;2901;42.140;24.760;2024-01-16T13:01:39;0.63;;;0.63;;
5752;SDS011;2901;42.140;24.760;2024-01-16T13:04:09;0.90;;;0.90;;
5752;SDS011;2901;42.140;24.760;2024-01-16T13:06:35;1.02;;;0.90;;
5752;SDS011;2901;42.140;24.760;2024-01-16T13:09:05;6.15;;;1.65;;
5752;SDS011;2901;42.140;24.760;2024-01-16T13:11:53;0.80;;;0.68;;
5752;SDS011;2901;42.140;24.760;2024-01-16T13:14:20;0.70;;;0.70;;
5752;SDS011;2901;42.140;24.760;2024-01-16T13:16:49;1.80;;;0.70;;
5752;SDS011;2901;42.140;24.760;2024-01-16T13:19:21;1.73;;;0.90;;
5752;SDS011;2901;42.140;24.760;2024-01-16T13:21:47;1.30;;;0.90;;
5752;SDS011;2901;42.140;24.760;2024-01-16T13:24:13;1.42;;;1.33;;
5752;SDS011;2901;42.140;24.760;2024-01-16T13:26:39;1.60;;;1.13;;
5752;SDS011;2901;42.140;24.760;2024-01-16T13:29:05;2.40;;;0.95;;
5752;SDS011;2901;42.140;24.760;2024-01-16T13:31:31;1.52;;;0.98;;
5752;SDS011;2901;42.140;24.760;2024-01-16T13:33:57;1.17;;;0.85;;
5752;SDS011;2901;42.140;24.760;2024-01-16T13:36:22;0.90;;;0.90;;
5752;SDS011;2901;42.140;24.760;2024-01-16T13:38:48;1.23;;;1.13;;
5752;SDS011;2901;42.140;24.760;2024-01-16T13:41:14;1.10;;;0.90;;
5752;SDS011;2901;42.140;24.760;2024-01-16T13:43:40;5.18;;;1.20;;
5752;SDS011;2901;42.140;24.760;2024-01-16T13:46:06;5.57;;;1.67;;
5752;SDS011;2901;42.140;24.760;2024-01-16T13:48:33;1.88;;;1.52;;
5752;SDS011;2901;42.140;24.760;2024-01-16T13:50:59;1.40;;;1.30;;
5752;SDS011;2901;42.140;24.760;2024-01-16T13:53:24;0.77;;;0.77;;
5752;SDS011;2901;42.140;24.760;2024-01-16T13:55:50;1.98;;;0.88;;
5752;SDS011;2901;42.140;24.760;2024-01-16T13:58:15;1.65;;;0.80;;
5752;SDS011;2901;42.140;24.760;2024-01-16T14:00:40;1.25;;;1.13;;
5752;SDS011;2901;42.140;24.760;2024-01-16T14:03:06;1.48;;;1.38;;
5752;SDS011;2901;42.140;24.760;2024-01-16T14:05:31;1.25;;;1.15;;
5752;SDS011;2901;42.140;24.760;2024-01-16T14:07:57;2.28;;;1.10;;
5752;SDS011;2901;42.140;24.760;2024-01-16T14:10:22;0.80;;;0.80;;
5752;SDS011;2901;42.140;24.760;2024-01-16T14:12:50;1.10;;;1.00;;
5752;SDS011;2901;42.140;24.760;2024-01-16T14:15:17;0.90;;;0.90;;
5752;SDS011;2901;42.140;24.760;2024-01-16T14:17:46;1.95;;;0.98;;
5752;SDS011;2901;42.140;24.760;2024-01-16T14:20:13;0.90;;;0.90;;
5752;SDS011;2901;42.140;24.760;2024-01-16T14:22:40;3.08;;;1.10;;
5752;SDS011;2901;42.140;24.760;2024-01-16T14:25:09;1.45;;;0.82;;
5752;SDS011;2901;42.140;24.760;2024-01-16T14:27:42;1.63;;;1.08;;
5752;SDS011;2901;42.140;24.760;2024-01-16T14:30:12;1.08;;;1.02;;
5752;SDS011;2901;42.140;24.760;2024-01-16T14:32:42;1.50;;;1.40;;
5752;SDS011;2901;42.140;24.760;2024-01-16T14:35:09;0.95;;;0.93;;
5752;SDS011;2901;42.140;24.760;2024-01-16T14:37:36;1.83;;;1.67;;
5752;SDS011;2901;42.140;24.760;2024-01-16T14:40:02;1.90;;;1.40;;
5752;SDS011;2901;42.140;24.760;2024-01-16T14:42:33;2.50;;;1.40;;
5752;SDS011;2901;42.140;24.760;2024-01-16T14:44:59;2.00;;;1.85;;
5752;SDS011;2901;42.140;24.760;2024-01-16T14:47:24;4.63;;;1.30;;
5752;SDS011;2901;42.140;24.760;2024-01-16T14:49:50;1.30;;;1.17;;
5752;SDS011;2901;42.140;24.760;2024-01-16T14:52:15;1.08;;;0.90;;
5752;SDS011;2901;42.140;24.760;2024-01-16T14:54:43;2.45;;;1.15;;
5752;SDS011;2901;42.140;24.760;2024-01-16T14:57:08;2.78;;;1.50;;